Time;durP1;ratioP1;P1;durP2;ratioP2;P2;SDS_P1;SDS_P2;PMS_P1;PMS_P2;Temp;Humidity;BMP_temperature;BMP_pressure;BME280_temperature;BME280_humidity;BME280_pressure;Samples;Min_cycle;Max_cycle;Signal;HPM_P1;HPM_P2
2022/01/07 00:00:16;;;;;;;23.02;12.82;;;-0.90;99.90;;;;;;5029527;28;20496;-67
2022/01/07 00:02:50;;;;;;;27.38;12.82;;;-0.90;99.90;;;;;;5030156;28;20049;-68
2022/01/07 00:05:18;;;;;;;30.63;12.43;;;-0.90;99.90;;;;;;5029889;28;20042;-67
2022/01/07 00:07:46;;;;;;;27.73;12.07;;;-0.90;99.90;;;;;;5028916;28;20037;-67
2022/01/07 00:10:17;;;;;;;23.38;12.07;;;-0.90;99.90;;;;;;5030378;28;20073;-67
2022/01/07 00:12:44;;;;;;;25.70;11.43;;;-0.90;99.90;;;;;;5028878;28;20068;-67
2022/01/07 00:15:12;;;;;;;25.50;11.45;;;-0.90;99.90;;;;;;5029312;28;20038;-67
2022/01/07 00:17:40;;;;;;;24.38;11.10;;;-1.00;99.90;;;;;;5030075;28;20038;-67
2022/01/07 00:20:09;;;;;;;23.88;11.32;;;-1.00;99.90;;;;;;5029900;28;20500;-67
2022/01/07 00:22:38;;;;;;;26.60;11.00;;;-1.00;99.90;;;;;;5026645;28;20045;-67
2022/01/07 00:25:07;;;;;;;22.20;10.02;;;-1.00;99.90;;;;;;5029405;28;20504;-67
2022/01/07 00:27:35;;;;;;;27.38;11.40;;;-1.00;99.90;;;;;;5029191;28;20099;-67
2022/01/07 00:30:05;;;;;;;23.95;11.75;;;-1.00;99.90;;;;;;5029256;28;20425;-67
2022/01/07 00:32:33;;;;;;;22.35;10.38;;;-1.10;99.90;;;;;;5028618;28;20041;-67
2022/01/07 00:35:00;;;;;;;21.23;10.68;;;-1.10;99.90;;;;;;5029174;28;20038;-67
2022/01/07 00:37:28;;;;;;;22.40;12.27;;;-1.20;99.90;;;;;;5028975;28;20404;-66
2022/01/07 00:39:55;;;;;;;20.05;11.25;;;-1.20;99.90;;;;;;5029219;28;20037;-66
2022/01/07 00:42:22;;;;;;;23.83;11.48;;;-1.20;99.90;;;;;;5028409;28;20152;-66
2022/01/07 00:44:49;;;;;;;25.63;11.98;;;-1.20;99.90;;;;;;5029484;28;20149;-67
2022/01/07 00:47:17;;;;;;;17.52;10.27;;;-1.20;99.90;;;;;;5030068;28;20135;-67
2022/01/07 00:49:44;;;;;;;23.45;10.55;;;-1.30;99.90;;;;;;5033525;28;20480;-66
2022/01/07 00:52:12;;;;;;;22.02;10.93;;;-1.30;99.90;;;;;;5033180;28;20465;-67
2022/01/07 00:54:39;;;;;;;22.70;11.25;;;-1.30;99.90;;;;;;5037839;28;20538;-66
2022/01/07 00:57:06;;;;;;;22.83;10.80;;;-1.30;99.90;;;;;;5042395;28;20091;-66
2022/01/07 00:59:34;;;;;;;21.27;10.27;;;-1.30;99.90;;;;;;5033256;28;20542;-66
2022/01/07 01:02:02;;;;;;;20.85;10.88;;;-1.30;99.90;;;;;;5032101;28;20049;-66
2022/01/07 01:04:42;;;;;;;19.08;10.23;;;-1.40;99.90;;;;;;5032135;28;20042;-67
2022/01/07 01:07:11;;;;;;;22.15;11.52;;;-1.40;99.90;;;;;;5032566;28;20054;-67
2022/01/07 01:09:38;;;;;;;24.85;10.55;;;-1.40;99.90;;;;;;5032012;28;20407;-66
2022/01/07 01:12:07;;;;;;;25.70;10.98;;;-1.40;99.90;;;;;;5032622;28;20132;-67
2022/01/07 01:14:35;;;;;;;23.42;10.95;;;-1.40;99.90;;;;;;5033756;28;20054;-67
2022/01/07 01:17:03;;;;;;;21.25;10.60;;;-1.40;99.90;;;;;;5032119;28;20099;-67
2022/01/07 01:19:30;;;;;;;24.30;11.48;;;-1.40;99.90;;;;;;5030813;28;20059;-68
2022/01/07 01:21:57;;;;;;;22.25;10.68;;;-1.30;99.90;;;;;;5046020;28;20046;-67
2022/01/07 01:24:25;;;;;;;26.85;11.50;;;-1.40;99.90;;;;;;5031848;28;20049;-66
2022/01/07 01:26:52;;;;;;;28.77;12.40;;;-1.40;99.90;;;;;;5031986;28;20506;-67
2022/01/07 01:29:22;;;;;;;21.70;11.27;;;-1.30;99.90;;;;;;5032565;28;20041;-67
2022/01/07 01:31:50;;;;;;;23.10;10.63;;;-1.40;99.90;;;;;;5031406;28;20037;-67
2022/01/07 01:34:17;;;;;;;22.42;11.95;;;-1.40;99.90;;;;;;5030949;28;20053;-67
2022/01/07 01:36:45;;;;;;;21.75;11.20;;;-1.30;99.90;;;;;;5031071;28;20462;-67
2022/01/07 01:39:12;;;;;;;28.27;12.77;;;-1.30;99.90;;;;;;5031492;28;20041;-67
2022/01/07 01:41:44;;;;;;;27.17;11.95;;;-1.20;99.90;;;;;;5031716;28;20503;-67
2022/01/07 01:44:11;;;;;;;26.85;12.73;;;-1.20;99.90;;;;;;5031846;28;20038;-67
2022/01/07 01:46:39;;;;;;;25.17;11.93;;;-1.20;99.90;;;;;;5037622;28;20120;-66
2022/01/07 01:49:06;;;;;;;25.52;12.07;;;-1.20;99.90;;;;;;5037260;28;20046;-66
2022/01/07 01:51:34;;;;;;;26.45;11.48;;;-1.10;99.90;;;;;;5037179;28;20385;-67
2022/01/07 01:54:04;;;;;;;29.95;14.15;;;-1.20;99.90;;;;;;5037287;28;20048;-67
2022/01/07 01:56:33;;;;;;;23.30;11.65;;;-1.20;99.90;;;;;;5029966;28;20057;-67
2022/01/07 01:59:00;;;;;;;27.48;11.98;;;-1.20;99.90;;;;;;5031885;28;20041;-66
2022/01/07 02:01:27;;;;;;;24.10;12.70;;;-1.20;99.90;;;;;;5027072;28;20057;-67
2022/01/07 02:03:55;;;;;;;29.65;12.57;;;-1.20;99.90;;;;;;5033416;28;20045;-66
2022/01/07 02:06:23;;;;;;;22.45;11.10;;;-1.20;99.90;;;;;;5033078;28;20151;-67
2022/01/07 02:08:52;;;;;;;26.20;11.48;;;-1.20;99.90;;;;;;5038774;28;20045;-67
2022/01/07 02:11:19;;;;;;;24.02;10.98;;;-1.20;99.90;;;;;;5041717;28;20029;-67
2022/01/07 02:13:48;;;;;;;20.42;11.30;;;-1.30;99.90;;;;;;5039122;28;20041;-67
2022/01/07 02:16:15;;;;;;;26.88;12.27;;;-1.30;99.90;;;;;;5042368;28;20400;-67
2022/01/07 02:18:43;;;;;;;22.13;11.27;;;-1.20;99.90;;;;;;5038103;28;20524;-67
2022/01/07 02:21:11;;;;;;;24.00;11.77;;;-1.30;99.90;;;;;;5041470;28;20514;-67
2022/01/07 02:23:38;;;;;;;21.48;11.63;;;-1.30;99.90;;;;;;5037022;28;20095;-67
2022/01/07 02:26:06;;;;;;;25.05;11.55;;;-1.30;99.90;;;;;;5041882;28;20045;-67
2022/01/07 02:28:34;;;;;;;27.42;11.05;;;-1.30;99.90;;;;;;5030616;28;20047;-67
2022/01/07 02:31:02;;;;;;;28.45;11.50;;;-1.30;99.90;;;;;;5040755;28;20499;-67
2022/01/07 02:33:30;;;;;;;25.02;11.25;;;-1.30;99.90;;;;;;5024423;28;20060;-67
2022/01/07 02:35:57;;;;;;;27.83;10.93;;;-1.30;99.90;;;;;;5019690;28;20068;-67
2022/01/07 02:38:24;;;;;;;24.45;11.45;;;-1.30;99.90;;;;;;5043479;28;20506;-67
2022/01/07 02:40:52;;;;;;;24.10;10.77;;;-1.30;99.90;;;;;;5033237;28;20050;-67
2022/01/07 02:43:19;;;;;;;23.05;11.38;;;-1.30;99.90;;;;;;5029931;28;20512;-67
2022/01/07 02:45:46;;;;;;;28.48;11.52;;;-1.30;99.90;;;;;;5032085;28;20133;-67
2022/01/07 02:48:13;;;;;;;22.75;9.63;;;-1.30;99.90;;;;;;5029889;28;20057;-67
2022/01/07 02:50:41;;;;;;;27.25;11.00;;;-1.30;99.90;;;;;;5032192;28;20153;-67
2022/01/07 02:53:10;;;;;;;26.58;11.02;;;-1.30;99.90;;;;;;5031542;28;20042;-67
2022/01/07 02:55:39;;;;;;;26.65;11.13;;;-1.30;99.90;;;;;;5044696;28;20451;-67
2022/01/07 02:58:07;;;;;;;22.67;11.18;;;-1.30;99.90;;;;;;5030910;28;20365;-66
2022/01/07 03:00:35;;;;;;;24.02;11.13;;;-1.30;99.90;;;;;;5030404;28;20057;-67
2022/01/07 03:03:05;;;;;;;21.00;10.90;;;-1.30;99.90;;;;;;5029119;28;20053;-66
2022/01/07 03:05:33;;;;;;;19.45;10.25;;;-1.40;99.90;;;;;;5028415;28;20546;-66
2022/01/07 03:08:01;;;;;;;19.92;10.13;;;-1.40;99.90;;;;;;5037720;28;20098;-66
2022/01/07 03:10:30;;;;;;;21.08;10.20;;;-1.40;99.90;;;;;;5029213;28;20381;-66
2022/01/07 03:13:00;;;;;;;22.63;10.30;;;-1.40;99.90;;;;;;5038797;28;20452;-67
2022/01/07 03:15:28;;;;;;;25.00;10.80;;;-1.40;99.90;;;;;;4999747;28;20071;-67
2022/01/07 03:17:55;;;;;;;20.95;10.95;;;-1.30;99.90;;;;;;5038087;28;20044;-67
2022/01/07 03:20:23;;;;;;;23.70;10.18;;;-1.30;99.90;;;;;;5024723;28;20379;-66
2022/01/07 03:22:51;;;;;;;27.50;11.25;;;-1.20;99.90;;;;;;5038089;28;20044;-67
2022/01/07 03:25:18;;;;;;;24.45;10.90;;;-1.20;99.90;;;;;;5035191;28;20059;-67
2022/01/07 03:27:46;;;;;;;23.08;10.88;;;-1.30;99.90;;;;;;5038495;28;20541;-67
2022/01/07 03:30:17;;;;;;;26.73;11.18;;;-1.30;99.90;;;;;;5037572;28;20415;-67
2022/01/07 03:32:44;;;;;;;26.85;11.35;;;-1.30;99.90;;;;;;5030963;28;20363;-67
2022/01/07 03:35:12;;;;;;;25.13;12.10;;;-1.20;99.90;;;;;;5039357;28;20045;-67
2022/01/07 03:37:41;;;;;;;21.85;9.48;;;-1.20;99.90;;;;;;5027175;28;20041;-67
2022/01/07 03:40:11;;;;;;;22.98;10.70;;;-1.20;99.90;;;;;;5025346;28;20057;-67
2022/01/07 03:42:39;;;;;;;21.05;10.00;;;-1.20;99.90;;;;;;5038159;28;20044;-67
2022/01/07 03:45:08;;;;;;;23.13;10.70;;;-1.20;99.90;;;;;;5031052;28;20377;-67
2022/01/07 03:47:35;;;;;;;23.05;10.18;;;-1.10;99.90;;;;;;5029013;28;20045;-67
2022/01/07 03:50:06;;;;;;;21.60;10.90;;;-1.10;99.90;;;;;;5032606;28;20048;-67
2022/01/07 03:52:35;;;;;;;21.33;10.18;;;-1.10;99.90;;;;;;5031940;28;20423;-67
2022/01/07 03:55:05;;;;;;;24.23;11.00;;;-1.10;99.90;;;;;;5039187;28;20052;-67
2022/01/07 03:57:32;;;;;;;26.83;10.38;;;-1.10;99.90;;;;;;5033772;28;20045;-67
2022/01/07 03:59:59;;;;;;;25.27;10.25;;;-1.00;99.90;;;;;;5028543;28;20481;-67
2022/01/07 04:02:26;;;;;;;15.85;9.20;;;-1.10;99.90;;;;;;5027643;28;20048;-67
2022/01/07 04:04:55;;;;;;;26.33;9.85;;;-1.10;99.90;;;;;;5019045;28;20054;-67
2022/01/07 04:07:22;;;;;;;24.23;10.32;;;-1.10;99.90;;;;;;5011904;28;20551;-66
2022/01/07 04:09:50;;;;;;;20.30;9.50;;;-1.00;99.90;;;;;;5025972;28;20033;-66
2022/01/07 04:12:17;;;;;;;17.83;9.75;;;-1.10;99.90;;;;;;5029719;28;20041;-67
2022/01/07 04:14:45;;;;;;;17.67;9.10;;;-1.10;99.90;;;;;;5028410;28;20064;-66
2022/01/07 04:17:12;;;;;;;16.70;8.52;;;-1.10;99.90;;;;;;5026368;28;20453;-66
2022/01/07 04:19:39;;;;;;;19.23;9.55;;;-1.10;99.90;;;;;;5024913;28;20050;-67
2022/01/07 04:22:07;;;;;;;27.95;11.48;;;-1.10;99.90;;;;;;5030062;28;20042;-66
2022/01/07 04:24:34;;;;;;;18.65;9.38;;;-1.10;99.90;;;;;;5025648;28;20072;-67
2022/01/07 04:27:02;;;;;;;20.52;9.65;;;-1.00;99.90;;;;;;5038557;28;20129;-67
2022/01/07 04:29:30;;;;;;;21.42;10.00;;;-1.10;99.90;;;;;;5034605;28;20041;-67
2022/01/07 04:31:57;;;;;;;19.77;8.93;;;-1.10;99.90;;;;;;5028855;28;20041;-67
2022/01/07 04:34:24;;;;;;;19.17;8.82;;;-1.10;99.90;;;;;;5027838;28;20052;-67
2022/01/07 04:36:51;;;;;;;17.38;8.18;;;-1.10;99.90;;;;;;5037836;28;20045;-67
2022/01/07 04:39:19;;;;;;;15.60;8.73;;;-1.10;99.90;;;;;;5026661;28;20076;-67
2022/01/07 04:41:46;;;;;;;16.00;8.95;;;-1.10;99.90;;;;;;5027862;28;20037;-67
2022/01/07 04:44:13;;;;;;;21.02;9.43;;;-1.10;99.90;;;;;;5027019;28;20052;-67
2022/01/07 04:46:40;;;;;;;18.77;9.10;;;-1.00;99.90;;;;;;5033886;28;20464;-67
2022/01/07 04:49:08;;;;;;;19.63;8.75;;;-0.90;99.90;;;;;;5035339;28;20037;-67
2022/01/07 04:51:35;;;;;;;17.52;8.23;;;-0.90;99.90;;;;;;5028389;28;20052;-67
2022/01/07 04:54:02;;;;;;;24.00;9.48;;;-0.90;99.90;;;;;;5021310;28;20420;-67
2022/01/07 04:56:30;;;;;;;17.48;9.48;;;-0.90;99.90;;;;;;5029036;28;20051;-67
2022/01/07 04:58:57;;;;;;;17.15;8.38;;;-0.90;99.90;;;;;;5030929;28;20472;-67
2022/01/07 05:01:24;;;;;;;17.73;8.93;;;-0.90;99.90;;;;;;5021084;28;20566;-67
2022/01/07 05:03:51;;;;;;;18.27;9.40;;;-0.80;99.90;;;;;;5013915;28;20052;-67
2022/01/07 05:08:52;;;;;;;19.65;9.43;;;-0.80;99.90;;;;;;5028781;28;20139;-67
2022/01/07 05:11:19;;;;;;;16.33;9.45;;;-0.90;99.90;;;;;;5029782;28;20036;-67
2022/01/07 05:13:46;;;;;;;20.40;9.60;;;-1.00;99.90;;;;;;5024831;28;20042;-67
2022/01/07 05:16:13;;;;;;;18.67;9.02;;;-0.90;99.90;;;;;;5031188;28;20408;-67
2022/01/07 05:18:41;;;;;;;21.55;11.23;;;-0.80;99.90;;;;;;5027729;28;20045;-67
2022/01/07 05:21:09;;;;;;;24.00;10.70;;;-0.80;99.90;;;;;;5025404;28;20444;-67
2022/01/07 05:23:36;;;;;;;19.10;9.90;;;-0.90;99.90;;;;;;5029895;28;20054;-67
2022/01/07 05:26:06;;;;;;;19.90;10.23;;;-0.90;99.90;;;;;;5036993;28;20049;-67
2022/01/07 05:28:34;;;;;;;18.83;9.45;;;-0.90;99.90;;;;;;5031949;28;20392;-67
2022/01/07 05:31:03;;;;;;;25.42;10.68;;;-1.00;99.90;;;;;;5046112;28;20428;-67
2022/01/07 05:33:30;;;;;;;22.98;10.40;;;-1.10;99.90;;;;;;5043577;28;20056;-66
2022/01/07 05:35:57;;;;;;;18.08;9.13;;;-1.10;99.90;;;;;;5030503;28;20480;-66
2022/01/07 05:38:25;;;;;;;21.05;10.25;;;-1.10;99.90;;;;;;5040556;28;20041;-67
2022/01/07 05:40:52;;;;;;;20.73;9.82;;;-1.10;99.90;;;;;;5031880;28;20064;-67
2022/01/07 05:43:19;;;;;;;24.60;12.02;;;-1.10;99.90;;;;;;5035545;28;20411;-67
2022/01/07 05:45:47;;;;;;;29.95;12.25;;;-1.20;99.90;;;;;;5030920;28;20057;-67
2022/01/07 05:48:17;;;;;;;19.02;9.98;;;-1.20;99.90;;;;;;5034007;28;20126;-67
2022/01/07 05:50:44;;;;;;;20.88;10.00;;;-1.30;99.90;;;;;;5033388;28;20048;-67
2022/01/07 05:53:11;;;;;;;17.98;9.95;;;-1.30;99.90;;;;;;5032645;28;20046;-67
2022/01/07 05:55:38;;;;;;;21.25;9.98;;;-1.30;99.90;;;;;;5036128;28;20098;-67
2022/01/07 05:58:06;;;;;;;25.13;11.38;;;-1.40;99.90;;;;;;5035211;28;20041;-66
2022/01/07 06:00:33;;;;;;;21.85;9.98;;;-1.30;99.90;;;;;;5036477;28;20704;-67
2022/01/07 06:03:00;;;;;;;21.13;10.27;;;-1.40;99.90;;;;;;5038899;28;20034;-67
2022/01/07 06:05:28;;;;;;;22.02;12.45;;;-1.40;99.90;;;;;;5031547;28;20053;-67
2022/01/07 06:07:55;;;;;;;23.00;11.15;;;-1.40;99.90;;;;;;5041097;28;20060;-67
2022/01/07 06:10:23;;;;;;;22.80;11.90;;;-1.40;99.90;;;;;;5026723;28;20041;-67
2022/01/07 06:12:50;;;;;;;26.02;11.93;;;-1.30;99.90;;;;;;5031192;28;20510;-67
2022/01/07 06:15:17;;;;;;;27.95;13.07;;;-1.30;99.90;;;;;;5043681;28;20502;-67
2022/01/07 06:17:44;;;;;;;28.73;14.02;;;-1.30;99.90;;;;;;5050519;28;20488;-67
2022/01/07 06:20:12;;;;;;;27.45;13.23;;;-1.20;99.90;;;;;;5047039;28;20052;-67
2022/01/07 06:22:39;;;;;;;27.45;13.20;;;-1.20;99.90;;;;;;5050111;28;20062;-67
2022/01/07 06:25:07;;;;;;;31.25;12.70;;;-1.10;99.90;;;;;;5050548;28;20045;-66
2022/01/07 06:27:34;;;;;;;28.35;13.10;;;-1.10;99.90;;;;;;5050216;28;20044;-66
2022/01/07 06:30:02;;;;;;;34.10;16.58;;;-1.10;99.90;;;;;;5041230;28;20530;-67
2022/01/07 06:32:29;;;;;;;32.45;16.40;;;-1.20;99.90;;;;;;5030791;28;20124;-67
2022/01/07 06:34:56;;;;;;;30.95;14.32;;;-1.20;99.90;;;;;;5038796;28;20048;-67
2022/01/07 06:37:24;;;;;;;33.40;15.13;;;-1.00;99.90;;;;;;5033409;28;20045;-67
2022/01/07 06:39:51;;;;;;;33.05;15.40;;;-1.10;99.90;;;;;;5033614;28;20052;-67
2022/01/07 06:42:18;;;;;;;40.78;18.95;;;-1.10;99.90;;;;;;5028439;28;20424;-67
2022/01/07 06:44:46;;;;;;;28.23;14.60;;;-1.10;99.90;;;;;;5026682;28;20052;-66
2022/01/07 06:47:13;;;;;;;35.35;15.82;;;-1.10;99.90;;;;;;5028705;28;20396;-67
2022/01/07 06:49:40;;;;;;;31.27;15.63;;;-1.00;99.90;;;;;;5031364;28;20049;-67
2022/01/07 06:52:08;;;;;;;35.60;15.68;;;-0.90;99.90;;;;;;5028940;28;20068;-67
2022/01/07 06:54:36;;;;;;;32.35;15.18;;;-0.80;99.90;;;;;;5025357;28;20048;-67
2022/01/07 06:57:03;;;;;;;39.60;15.80;;;-0.80;99.90;;;;;;5017959;28;20132;-68
2022/01/07 06:59:30;;;;;;;36.00;17.50;;;-0.70;99.90;;;;;;5028814;28;20041;-67
2022/01/07 07:01:58;;;;;;;34.50;15.98;;;-0.70;99.90;;;;;;5038399;28;20429;-67
2022/01/07 07:04:25;;;;;;;36.13;15.82;;;-0.60;99.90;;;;;;5035272;28;20087;-67
2022/01/07 07:06:53;;;;;;;32.58;15.15;;;-0.60;99.90;;;;;;5036785;28;20049;-67
2022/01/07 07:09:20;;;;;;;40.17;18.20;;;-0.50;99.90;;;;;;5030773;28;20348;-67
2022/01/07 07:11:48;;;;;;;34.95;15.27;;;-0.40;99.90;;;;;;5031724;28;20055;-67
2022/01/07 07:14:15;;;;;;;30.95;15.07;;;-0.30;99.90;;;;;;5030675;28;20673;-67
2022/01/07 07:16:43;;;;;;;29.98;14.77;;;-0.30;99.90;;;;;;5034118;28;20143;-66
2022/01/07 07:19:11;;;;;;;28.42;14.10;;;-0.30;99.90;;;;;;5028844;28;20395;-67
2022/01/07 07:21:38;;;;;;;28.48;14.35;;;-0.30;99.90;;;;;;5023165;28;20052;-67
2022/01/07 07:24:06;;;;;;;36.40;16.63;;;-0.30;99.90;;;;;;5036980;28;20045;-67
2022/01/07 07:26:34;;;;;;;37.00;16.02;;;-0.40;99.90;;;;;;5030591;28;20259;-67
2022/01/07 07:29:01;;;;;;;31.45;14.57;;;-0.30;99.90;;;;;;5048877;28;20049;-67
2022/01/07 07:31:30;;;;;;;29.25;14.40;;;-0.30;99.90;;;;;;5041349;28;20553;-66
2022/01/07 07:36:44;;;;;;;33.65;15.32;;;-0.40;99.90;;;;;;5043199;28;20044;-66
2022/01/07 07:39:14;;;;;;;31.13;14.85;;;-0.40;99.90;;;;;;5023149;28;20049;-67
2022/01/07 07:41:42;;;;;;;37.92;16.73;;;-0.40;99.90;;;;;;5028436;28;20549;-67
2022/01/07 07:44:10;;;;;;;34.03;15.32;;;-0.30;99.90;;;;;;5029660;28;20049;-67
2022/01/07 07:46:40;;;;;;;32.55;15.40;;;-0.20;99.90;;;;;;5033793;28;20555;-67
2022/01/07 07:49:09;;;;;;;25.67;14.23;;;-0.20;99.90;;;;;;5022352;28;20144;-67
2022/01/07 07:51:36;;;;;;;32.35;15.70;;;-0.20;99.90;;;;;;5028308;28;20060;-66
2022/01/07 07:54:05;;;;;;;30.83;15.52;;;-0.10;99.90;;;;;;5028414;28;20038;-68
2022/01/07 07:56:33;;;;;;;34.10;15.15;;;-0.10;99.90;;;;;;5029284;28;20091;-67
2022/01/07 07:59:00;;;;;;;32.25;16.00;;;-0.10;99.90;;;;;;5040353;28;20043;-67
2022/01/07 08:01:28;;;;;;;33.03;14.98;;;0.00;99.90;;;;;;5030607;28;20038;-68
2022/01/07 08:03:55;;;;;;;29.92;14.50;;;0.10;99.90;;;;;;5026215;28;20053;-68
2022/01/07 08:06:22;;;;;;;30.20;14.77;;;0.10;99.90;;;;;;5027929;28;20407;-67
2022/01/07 08:08:50;;;;;;;33.70;15.18;;;0.20;99.90;;;;;;5027627;28;20499;-67
2022/01/07 08:11:17;;;;;;;32.50;13.70;;;0.10;99.90;;;;;;5024673;28;20524;-67
2022/01/07 08:16:31;;;;;;;36.65;15.68;;;0.30;99.90;;;;;;5022872;28;20046;-67
2022/01/07 08:18:59;;;;;;;28.27;13.82;;;0.30;99.90;;;;;;5022828;28;20046;-67
2022/01/07 08:21:29;;;;;;;31.73;14.85;;;0.40;99.90;;;;;;5018017;28;20041;-67
2022/01/07 08:23:57;;;;;;;28.08;13.55;;;0.40;99.90;;;;;;5033672;28;20049;-67
2022/01/07 08:26:24;;;;;;;29.20;14.52;;;0.60;99.90;;;;;;5028505;28;20049;-67
2022/01/07 08:28:56;;;;;;;28.08;14.25;;;0.60;99.90;;;;;;5027183;28;20072;-66
2022/01/07 08:36:47;;;;;;;27.58;13.27;;;0.70;99.90;;;;;;5029743;28;20045;-66
2022/01/07 08:39:14;;;;;;;30.52;13.27;;;0.70;99.90;;;;;;5024714;28;20775;-66
2022/01/07 08:41:42;;;;;;;27.48;12.77;;;0.70;99.90;;;;;;5027056;28;20049;-66
2022/01/07 08:44:11;;;;;;;28.40;13.10;;;0.60;99.90;;;;;;5020240;28;20076;-66
2022/01/07 08:46:39;;;;;;;29.67;14.15;;;0.70;99.90;;;;;;5026833;28;20049;-67
2022/01/07 08:49:06;;;;;;;25.40;13.20;;;0.70;99.90;;;;;;5028772;28;20119;-66
2022/01/07 08:51:34;;;;;;;28.85;14.05;;;0.80;99.90;;;;;;5026743;28;20049;-67
2022/01/07 08:54:02;;;;;;;26.92;13.63;;;1.00;99.90;;;;;;5030354;28;20042;-67
2022/01/07 08:56:30;;;;;;;28.95;13.95;;;0.90;99.90;;;;;;5029648;28;20042;-67
2022/01/07 08:58:57;;;;;;;28.50;14.02;;;1.00;99.90;;;;;;5029765;28;20577;-67
2022/01/07 09:01:28;;;;;;;27.88;14.88;;;0.90;99.90;;;;;;5025632;28;20111;-68
2022/01/07 09:03:57;;;;;;;28.20;14.52;;;1.00;99.90;;;;;;5009290;28;20048;-67
2022/01/07 09:06:24;;;;;;;27.08;13.63;;;1.10;99.90;;;;;;5024823;28;20578;-68
2022/01/07 09:08:52;;;;;;;30.25;13.63;;;1.00;99.90;;;;;;5028333;28;20045;-67
2022/01/07 09:11:19;;;;;;;28.80;13.95;;;1.00;99.90;;;;;;5030272;28;20137;-67
2022/01/07 09:13:48;;;;;;;28.63;14.27;;;1.10;99.90;;;;;;5035911;28;20465;-67
2022/01/07 09:16:15;;;;;;;30.75;13.90;;;1.10;99.90;;;;;;5032586;28;20064;-67
2022/01/07 09:18:43;;;;;;;28.95;14.25;;;1.30;99.90;;;;;;5027770;28;20034;-67
2022/01/07 09:21:10;;;;;;;27.98;13.07;;;1.40;99.90;;;;;;5028442;28;20051;-66
2022/01/07 09:23:41;;;;;;;27.90;13.43;;;1.30;99.90;;;;;;5031632;28;20061;-67
2022/01/07 09:26:09;;;;;;;26.87;14.07;;;1.40;99.90;;;;;;5040083;28;20721;-66
2022/01/07 09:28:37;;;;;;;31.08;13.68;;;1.40;99.90;;;;;;5034557;28;20633;-66
2022/01/07 09:31:04;;;;;;;30.05;14.68;;;1.40;99.90;;;;;;5042990;28;20052;-66
2022/01/07 09:33:32;;;;;;;28.55;14.45;;;1.50;99.90;;;;;;5034544;28;20481;-67
2022/01/07 09:36:19;;;;;;;29.05;14.75;;;1.50;99.90;;;;;;5045289;28;20502;-67
2022/01/07 09:38:47;;;;;;;25.90;12.98;;;1.40;99.90;;;;;;5039951;28;20087;-67
2022/01/07 09:41:15;;;;;;;23.90;12.38;;;1.50;99.90;;;;;;5042637;28;20044;-67
2022/01/07 09:43:43;;;;;;;26.58;12.95;;;1.50;99.90;;;;;;5042062;28;20131;-68
2022/01/07 09:46:15;;;;;;;27.17;13.20;;;1.50;99.90;;;;;;5025256;28;20049;-67
2022/01/07 09:48:42;;;;;;;25.02;13.95;;;1.50;99.90;;;;;;5031981;28;20053;-68
2022/01/07 09:51:11;;;;;;;26.13;13.40;;;1.60;99.90;;;;;;5029187;28;20045;-67
2022/01/07 09:53:39;;;;;;;28.52;13.73;;;1.50;99.90;;;;;;5027419;28;20053;-67
2022/01/07 09:56:06;;;;;;;26.27;13.52;;;1.50;99.90;;;;;;5028071;28;20121;-67
2022/01/07 09:58:34;;;;;;;27.38;13.88;;;1.60;99.90;;;;;;5033735;28;20056;-67
2022/01/07 10:01:09;;;;;;;24.67;13.10;;;1.60;99.90;;;;;;5030286;28;20091;-67
2022/01/07 10:03:42;;;;;;;30.05;13.80;;;1.70;99.90;;;;;;5037506;28;20408;-66
2022/01/07 10:06:26;;;;;;;24.80;12.73;;;1.70;99.90;;;;;;5047474;28;20542;-66
2022/01/07 10:09:02;;;;;;;25.23;13.18;;;1.70;99.90;;;;;;5030430;28;20666;-67
2022/01/07 10:11:30;;;;;;;30.58;14.70;;;1.60;99.90;;;;;;5024013;28;20037;-66
2022/01/07 10:14:19;;;;;;;30.05;13.85;;;1.70;99.90;;;;;;5048556;28;20577;-67
2022/01/07 10:16:52;;;;;;;33.05;14.18;;;1.80;99.90;;;;;;5031697;28;20067;-66
2022/01/07 10:19:42;;;;;;;26.02;13.05;;;1.80;99.90;;;;;;5037957;28;20053;-67
2022/01/07 10:22:16;;;;;;;28.38;13.60;;;1.80;99.90;;;;;;5023200;28;20049;-67
2022/01/07 10:25:01;;;;;;;27.85;12.82;;;1.80;99.90;;;;;;5046603;28;20053;-66
2022/01/07 10:27:39;;;;;;;28.40;13.02;;;1.90;99.90;;;;;;5033400;28;20041;-67
2022/01/07 10:30:17;;;;;;;26.80;12.25;;;2.10;99.90;;;;;;5035248;28;20468;-67
2022/01/07 10:32:45;;;;;;;25.77;12.40;;;2.20;99.90;;;;;;5033679;28;20041;-67
2022/01/07 10:35:15;;;;;;;25.88;12.63;;;2.20;99.90;;;;;;5033066;28;20037;-67
2022/01/07 10:37:56;;;;;;;25.98;12.65;;;2.30;99.90;;;;;;5009581;28;20038;-68
2022/01/07 10:40:34;;;;;;;23.38;11.95;;;2.30;99.90;;;;;;5034992;28;20038;-68
2022/01/07 10:43:25;;;;;;;23.42;11.80;;;2.40;99.90;;;;;;5031916;28;20495;-67
2022/01/07 10:45:58;;;;;;;25.38;12.13;;;2.40;99.90;;;;;;5030332;28;20060;-67
2022/01/07 10:48:40;;;;;;;23.80;11.73;;;2.50;99.90;;;;;;5032214;28;20050;-68
2022/01/07 10:51:13;;;;;;;22.33;12.00;;;2.60;99.90;;;;;;5026924;28;20056;-67
2022/01/07 10:53:46;;;;;;;21.08;11.88;;;2.80;99.90;;;;;;5031565;28;20544;-67
2022/01/07 10:56:16;;;;;;;24.92;11.68;;;2.90;99.90;;;;;;5046228;28;20106;-67
2022/01/07 10:58:57;;;;;;;22.77;11.38;;;3.10;99.90;;;;;;5025456;28;20037;-67
2022/01/07 11:01:33;;;;;;;25.35;12.77;;;3.10;99.90;;;;;;5026101;28;20045;-67
2022/01/07 11:04:03;;;;;;;26.70;12.75;;;3.20;99.90;;;;;;5037858;28;20518;-66
2022/01/07 11:06:36;;;;;;;21.95;11.43;;;3.30;99.90;;;;;;5038347;28;20098;-66
2022/01/07 11:09:09;;;;;;;24.67;11.75;;;3.20;99.90;;;;;;5024496;28;20077;-66
2022/01/07 11:11:48;;;;;;;23.60;11.02;;;3.30;99.90;;;;;;5037624;28;20046;-68
2022/01/07 11:14:24;;;;;;;25.73;11.52;;;3.40;99.90;;;;;;5030397;28;20389;-68
2022/01/07 11:16:53;;;;;;;23.35;10.98;;;3.50;99.90;;;;;;5023550;28;20554;-66
2022/01/07 11:19:23;;;;;;;21.40;11.23;;;3.50;99.90;;;;;;5031223;28;20056;-66
2022/01/07 11:21:53;;;;;;;23.73;11.40;;;3.20;99.90;;;;;;5031059;28;20053;-68
2022/01/07 11:24:40;;;;;;;21.05;11.73;;;3.20;99.90;;;;;;5032062;28;20049;-67
2022/01/07 11:27:15;;;;;;;21.35;11.50;;;3.20;99.90;;;;;;5027771;28;20465;-67
2022/01/07 11:30:07;;;;;;;21.38;11.25;;;3.40;99.90;;;;;;5027219;28;20057;-68
2022/01/07 11:32:49;;;;;;;22.92;10.82;;;3.20;99.90;;;;;;5029073;28;20638;-68
2022/01/07 11:35:40;;;;;;;20.95;10.85;;;3.20;99.90;;;;;;5024666;28;20041;-68
2022/01/07 11:38:14;;;;;;;19.50;10.23;;;3.10;99.90;;;;;;5028418;28;20091;-68
2022/01/07 11:40:43;;;;;;;25.55;12.02;;;2.90;99.90;;;;;;5035733;28;20045;-67
2022/01/07 11:43:13;;;;;;;22.85;11.30;;;2.70;99.90;;;;;;5029266;28;20171;-68
2022/01/07 11:45:41;;;;;;;22.05;12.20;;;2.60;99.90;;;;;;5029125;28;20050;-68
2022/01/07 11:48:09;;;;;;;24.08;11.50;;;2.40;99.90;;;;;;5029534;28;20511;-68
2022/01/07 11:50:46;;;;;;;20.73;10.93;;;2.30;99.90;;;;;;5031338;28;20069;-68
2022/01/07 11:53:13;;;;;;;23.67;11.63;;;2.20;99.90;;;;;;5028233;28;20192;-67
2022/01/07 11:55:42;;;;;;;25.25;11.43;;;2.20;99.90;;;;;;5027303;28;20213;-66
2022/01/07 11:58:11;;;;;;;26.80;11.95;;;2.20;99.90;;;;;;5027068;28;20037;-67
2022/01/07 12:00:51;;;;;;;24.23;11.98;;;2.20;99.90;;;;;;5031737;28;20037;-67
2022/01/07 12:03:40;;;;;;;22.05;11.35;;;2.20;99.90;;;;;;5031080;28;20512;-68
2022/01/07 12:06:28;;;;;;;25.83;11.65;;;2.20;99.90;;;;;;5034879;28;20044;-68
2022/01/07 12:09:13;;;;;;;21.88;11.88;;;2.10;99.90;;;;;;5029276;28;20500;-68
2022/01/07 12:11:41;;;;;;;23.08;11.93;;;2.10;99.90;;;;;;5026017;28;20033;-67
2022/01/07 12:14:12;;;;;;;22.33;12.15;;;2.00;99.90;;;;;;5038883;28;20061;-67
2022/01/07 12:16:44;;;;;;;22.77;12.15;;;2.10;99.90;;;;;;5029179;28;20525;-67
2022/01/07 12:19:21;;;;;;;27.38;14.65;;;2.10;99.90;;;;;;5029823;28;20404;-68
2022/01/07 12:21:53;;;;;;;23.08;11.88;;;2.10;99.90;;;;;;5035420;28;20480;-68
2022/01/07 12:24:31;;;;;;;;;;;2.10;99.90;;;;;;5034816;28;20066;-68
2022/01/07 12:27:05;;;;;;;21.85;12.02;;;2.20;99.90;;;;;;5026521;28;20315;-68
2022/01/07 12:29:35;;;;;;;22.45;11.93;;;2.20;99.90;;;;;;5021600;28;20057;-68
2022/01/07 12:32:05;;;;;;;21.33;11.77;;;2.30;99.90;;;;;;5034092;28;20064;-67
2022/01/07 12:34:35;;;;;;;24.08;12.43;;;2.40;99.90;;;;;;5031965;28;20041;-67
2022/01/07 12:37:05;;;;;;;24.23;11.68;;;2.40;99.90;;;;;;5033087;28;20037;-67
2022/01/07 12:39:37;;;;;;;23.58;12.52;;;2.40;99.90;;;;;;5031959;28;20416;-67
2022/01/07 12:42:06;;;;;;;25.33;12.48;;;2.30;99.90;;;;;;5023908;28;20540;-68
2022/01/07 12:44:37;;;;;;;22.85;12.77;;;2.40;99.90;;;;;;5029863;28;20522;-67
2022/01/07 12:47:05;;;;;;;21.67;11.82;;;2.50;99.90;;;;;;5028717;28;20049;-67
2022/01/07 12:49:40;;;;;;;20.27;11.63;;;2.50;99.90;;;;;;5018526;28;20049;-66
2022/01/07 12:52:54;;;;;;;24.83;13.10;;;2.30;99.90;;;;;;5028705;28;20484;-67
2022/01/07 12:55:26;;;;;;;22.05;12.70;;;2.20;99.90;;;;;;5038196;28;20049;-66
2022/01/07 12:57:58;;;;;;;;;;;2.00;99.90;;;;;;5032232;28;20049;-68